createdAt,value
2019-03-25T00:08:15.997Z,100651.00
2019-03-25T00:18:59.031Z,100640.00
2019-03-25T00:29:42.072Z,100638.00
2019-03-25T00:40:27.095Z,100620.00
2019-03-25T00:51:10.616Z,100606.00
2019-03-25T01:01:55.890Z,100606.00
2019-03-25T01:12:40.253Z,100633.00
2019-03-25T01:23:24.279Z,100613.00
2019-03-25T01:34:06.761Z,100634.00
2019-03-25T01:44:51.881Z,100618.00
2019-03-25T01:55:36.670Z,100608.00
2019-03-25T02:06:19.458Z,100594.00
2019-03-25T02:16:59.012Z,100591.00
2019-03-25T02:27:43.670Z,100560.00
2019-03-25T02:38:21.203Z,100492.00
2019-03-25T02:49:00.438Z,100410.00
2019-03-25T02:59:44.578Z,100368.00
2019-03-25T03:10:27.801Z,100305.00
2019-03-25T03:21:13.741Z,100215.00
2019-03-25T03:31:58.372Z,100135.00
2019-03-25T03:42:42.593Z,100082.00
2019-03-25T03:53:27.123Z,100012.00
2019-03-25T04:04:09.092Z,99973.00
2019-03-25T04:14:55.328Z,99948.00
2019-03-25T04:25:38.123Z,99929.00
2019-03-25T04:36:22.214Z,99911.00
2019-03-25T04:47:06.984Z,99881.00
2019-03-25T04:57:48.875Z,99844.00
2019-03-25T05:08:33.005Z,99867.00
2019-03-25T05:19:17.866Z,99851.00
2019-03-25T05:30:01.889Z,99842.00
2019-03-25T05:40:47.103Z,99847.00
2019-03-25T05:51:29.721Z,99849.00
2019-03-25T06:02:11.993Z,99857.00
2019-03-25T06:12:51.372Z,100109.00
2019-03-25T06:23:34.166Z,100136.00
2019-03-25T06:34:20.141Z,100114.00
2019-03-25T06:45:06.433Z,100117.00
2019-03-25T06:55:52.000Z,100092.00
2019-03-25T07:06:30.626Z,100102.00
2019-03-25T07:17:13.706Z,100089.00
2019-03-25T07:27:58.261Z,100036.00
2019-03-25T07:38:41.736Z,100027.00
2019-03-25T07:49:24.448Z,100064.00
2019-03-25T08:00:13.398Z,99999.00
2019-03-25T08:10:52.139Z,99886.00
2019-03-25T08:21:36.763Z,99901.00
2019-03-25T08:32:18.257Z,99929.00
2019-03-25T08:43:01.586Z,99930.00
2019-03-25T08:53:43.258Z,99910.00
2019-03-25T09:04:27.628Z,99889.00
2019-03-25T09:15:12.089Z,99835.00
2019-03-25T09:25:47.380Z,99788.00
2019-03-25T09:36:30.782Z,99736.00
2019-03-25T09:47:15.105Z,99797.00
2019-03-25T09:57:58.965Z,99762.00
2019-03-25T10:08:37.530Z,99664.00
2019-03-25T10:19:19.228Z,99661.00
2019-03-25T10:30:03.175Z,99593.00
2019-03-25T10:40:47.305Z,99632.00
2019-03-25T10:51:29.413Z,99599.00
2019-03-25T11:02:07.851Z,99575.00
2019-03-25T11:12:45.575Z,99808.00
2019-03-25T11:23:22.676Z,99715.00
2019-03-25T11:34:00.031Z,99891.00
2019-03-25T11:44:39.569Z,99812.00
2019-03-25T11:55:20.011Z,99687.00
2019-03-25T12:06:01.643Z,99569.00
2019-03-25T12:16:43.161Z,99536.00
2019-03-25T12:27:21.383Z,99896.00
2019-03-25T12:37:57.905Z,99967.00
2019-03-25T12:48:37.933Z,99773.00
2019-03-25T12:59:18.257Z,99736.00
2019-03-25T13:10:00.349Z,99753.00
2019-03-25T13:20:41.135Z,99704.00
2019-03-25T13:31:22.788Z,99693.00
2019-03-25T13:41:54.691Z,100143.00
2019-03-25T13:52:34.773Z,100007.00
2019-03-25T14:03:16.727Z,99866.00
2019-03-25T14:14:00.112Z,99772.00
2019-03-25T14:24:34.664Z,99693.00
2019-03-25T14:35:12.453Z,99688.00
2019-03-25T14:45:52.485Z,99698.00
2019-03-25T14:56:28.108Z,99753.00
2019-03-25T15:07:07.275Z,99928.00
2019-03-25T15:17:40.379Z,100337.00
2019-03-25T15:28:12.246Z,100336.00
2019-03-25T15:38:50.108Z,100420.00
2019-03-25T15:49:28.548Z,100343.00
2019-03-25T16:00:09.141Z,100243.00
2019-03-25T16:10:51.783Z,100095.00
2019-03-25T16:21:35.109Z,100035.00
2019-03-25T16:32:13.548Z,100006.00
2019-03-25T16:42:56.854Z,100114.00
2019-03-25T16:53:43.556Z,100170.00
2019-03-25T17:04:29.610Z,100163.00
2019-03-25T17:15:08.101Z,100132.00
2019-03-25T17:25:52.975Z,100105.00
2019-03-25T17:36:28.978Z,100138.00
2019-03-25T17:47:08.191Z,100141.00
2019-03-25T17:57:48.821Z,100172.00
2019-03-25T18:08:24.613Z,100219.00
2019-03-25T18:19:05.038Z,100256.00
2019-03-25T18:29:44.086Z,100285.00
2019-03-25T18:40:24.555Z,100310.00
2019-03-25T18:51:04.077Z,100329.00
2019-03-25T19:01:54.057Z,100325.00
2019-03-25T19:12:24.141Z,100336.00
2019-03-25T19:23:04.742Z,100353.00
2019-03-25T19:33:38.759Z,100356.00
2019-03-25T19:44:16.330Z,100393.00
2019-03-25T19:54:53.629Z,100430.00
2019-03-25T20:05:27.677Z,100467.00
2019-03-25T20:16:07.634Z,100495.00
2019-03-25T20:26:47.823Z,100543.00
2019-03-25T20:37:27.287Z,100555.00
2019-03-25T20:48:02.326Z,100564.00
2019-03-25T20:58:43.421Z,100581.00
2019-03-25T21:09:24.060Z,100600.00
2019-03-25T21:19:59.710Z,100601.00
2019-03-25T21:30:47.848Z,100623.00
2019-03-25T21:41:20.608Z,100628.00
2019-03-25T21:52:00.398Z,100624.00
2019-03-25T22:02:43.563Z,100636.00
2019-03-25T22:13:22.272Z,100640.00
2019-03-25T22:24:06.584Z,100645.00
2019-03-25T22:34:47.383Z,100673.00
2019-03-25T22:45:31.070Z,100698.00
2019-03-25T22:56:13.806Z,100714.00
2019-03-25T23:06:59.439Z,100717.00
2019-03-25T23:17:42.320Z,100733.00
2019-03-25T23:28:22.285Z,100742.00
2019-03-25T23:39:07.507Z,100753.00
2019-03-25T23:49:52.281Z,100772.00
